createdAt,value
2022-12-17T00:07:38.871Z,54.47
2022-12-17T00:17:59.044Z,54.26
2022-12-17T00:28:19.014Z,54.42
2022-12-17T00:38:39.428Z,54.87
2022-12-17T00:49:00.241Z,54.49
2022-12-17T00:59:21.553Z,53.77
2022-12-17T01:09:41.512Z,54.07
2022-12-17T01:20:01.716Z,53.52
2022-12-17T01:30:22.346Z,53.69
2022-12-17T01:40:42.305Z,53.87
2022-12-17T01:51:06.736Z,54.21
2022-12-17T02:01:40.457Z,53.32
2022-12-17T02:12:17.029Z,54.58
2022-12-17T02:22:53.261Z,53.70
2022-12-17T02:33:14.712Z,54.34
2022-12-17T02:43:39.615Z,54.56
2022-12-17T02:54:02.307Z,54.90
2022-12-17T03:04:23.381Z,55.10
2022-12-17T03:14:43.621Z,54.98
2022-12-17T03:25:03.585Z,56.02
2022-12-17T03:35:23.676Z,55.73
2022-12-17T03:45:43.611Z,56.06
2022-12-17T03:56:03.910Z,55.46
2022-12-17T04:06:24.365Z,55.13
2022-12-17T04:16:44.259Z,55.47
2022-12-17T04:27:04.362Z,55.73
2022-12-17T04:37:24.949Z,55.74
2022-12-17T04:47:44.774Z,55.50
2022-12-17T04:58:04.648Z,56.14
2022-12-17T05:08:24.972Z,56.15
2022-12-17T05:18:44.887Z,56.87
2022-12-17T05:29:04.804Z,56.47
2022-12-17T05:39:24.729Z,57.25
2022-12-17T05:49:44.608Z,57.52
2022-12-17T06:00:04.577Z,57.74
2022-12-17T06:10:31.987Z,57.76
2022-12-17T06:20:52.316Z,58.47
2022-12-17T06:31:13.412Z,57.67
2022-12-17T06:41:33.519Z,58.00
2022-12-17T06:51:53.496Z,57.81
2022-12-17T07:02:13.667Z,58.00
2022-12-17T07:12:33.825Z,58.60
2022-12-17T07:22:53.684Z,58.58
2022-12-17T07:33:21.750Z,58.09
2022-12-17T07:43:41.659Z,59.07
2022-12-17T07:54:01.827Z,58.96
2022-12-17T08:04:21.685Z,59.03
2022-12-17T08:14:58.217Z,58.16
2022-12-17T08:25:18.329Z,57.60
2022-12-17T08:35:38.340Z,57.27
2022-12-17T08:45:58.320Z,56.28
2022-12-17T08:56:18.546Z,56.10
2022-12-17T09:06:39.400Z,54.43
2022-12-17T09:16:59.885Z,48.29
2022-12-17T09:27:20.065Z,38.73
2022-12-17T09:37:40.144Z,37.45
2022-12-17T09:48:18.512Z,36.10
2022-12-17T09:58:44.177Z,30.40
2022-12-17T10:09:04.811Z,28.33
2022-12-17T10:19:33.085Z,27.61
2022-12-17T10:29:53.508Z,26.89
2022-12-17T10:40:16.367Z,26.70
2022-12-17T10:50:42.143Z,26.57
2022-12-17T11:01:02.883Z,27.35
2022-12-17T11:11:27.865Z,27.96
2022-12-17T11:21:53.806Z,28.68
2022-12-17T11:32:29.529Z,33.06
2022-12-17T11:42:55.510Z,37.91
2022-12-17T11:53:52.286Z,38.09
2022-12-17T12:04:51.498Z,38.97
2022-12-17T12:15:36.497Z,39.65
2022-12-17T12:26:12.207Z,39.43
2022-12-17T12:36:35.785Z,39.10
2022-12-17T12:47:15.814Z,39.19
2022-12-17T12:57:48.762Z,39.34
2022-12-17T13:08:19.831Z,39.74
2022-12-17T13:18:40.287Z,40.50
2022-12-17T13:28:44.357Z,40.64
2022-12-17T13:39:05.463Z,41.44
2022-12-17T13:49:21.199Z,42.76
2022-12-17T13:59:25.204Z,43.68
2022-12-17T14:09:40.477Z,44.30
2022-12-17T14:19:42.246Z,44.92
2022-12-17T14:29:46.666Z,45.89
2022-12-17T14:39:48.956Z,46.52
2022-12-17T14:50:23.808Z,47.93
2022-12-17T15:00:25.274Z,48.68
2022-12-17T15:10:26.927Z,49.74
2022-12-17T15:20:28.449Z,50.63
2022-12-17T15:30:29.996Z,50.33
2022-12-17T15:40:31.541Z,50.52
2022-12-17T15:50:33.441Z,51.45
2022-12-17T16:00:35.202Z,52.18
2022-12-17T16:10:37.744Z,52.43
2022-12-17T16:20:39.222Z,52.87
2022-12-17T16:30:40.750Z,54.16
2022-12-17T16:40:42.266Z,55.54
2022-12-17T16:50:44.614Z,56.17
2022-12-17T17:00:54.476Z,56.33
2022-12-17T17:10:57.643Z,56.77
2022-12-17T17:21:31.655Z,56.48
2022-12-17T17:32:08.332Z,56.56
2022-12-17T17:41:56.212Z,56.59
2022-12-17T17:52:09.433Z,57.24
2022-12-17T18:02:12.253Z,57.50
2022-12-17T18:12:32.685Z,57.18
2022-12-17T18:22:34.206Z,58.45
2022-12-17T18:32:36.950Z,59.56
2022-12-17T18:42:57.222Z,59.33
2022-12-17T18:52:58.749Z,59.05
2022-12-17T19:03:01.528Z,59.00
2022-12-17T19:13:04.841Z,59.49
2022-12-17T19:23:06.451Z,59.46
2022-12-17T19:33:08.555Z,59.20
2022-12-17T19:43:10.031Z,59.61
2022-12-17T19:53:11.566Z,59.47
2022-12-17T20:03:13.189Z,59.96
2022-12-17T20:13:14.709Z,60.61
2022-12-17T20:23:16.189Z,60.32
2022-12-17T20:33:17.714Z,60.86
2022-12-17T20:43:19.180Z,60.80
2022-12-17T20:53:20.815Z,60.13
2022-12-17T21:03:22.289Z,59.96
2022-12-17T21:13:29.950Z,60.02
2022-12-17T21:23:32.183Z,60.42
2022-12-17T21:33:33.638Z,61.47
2022-12-17T21:43:38.674Z,61.13
2022-12-17T21:53:42.802Z,60.84
2022-12-17T22:03:44.937Z,61.14
2022-12-17T22:14:08.916Z,61.16
2022-12-17T22:24:16.898Z,60.61
2022-12-17T22:35:05.560Z,60.61
2022-12-17T22:44:53.313Z,60.36
2022-12-17T22:54:56.394Z,60.57
2022-12-17T23:04:58.242Z,60.42
2022-12-17T23:14:59.689Z,60.50
2022-12-17T23:25:01.224Z,61.00
2022-12-17T23:35:03.360Z,60.90
2022-12-17T23:45:06.648Z,61.24
2022-12-17T23:55:08.716Z,60.95
